createdAt,value
2022-12-01T00:00:06.851Z,60.00
2022-12-01T00:02:08.700Z,60.00
2022-12-01T00:04:10.558Z,59.90
2022-12-01T00:06:13.691Z,60.00
2022-12-01T00:08:15.432Z,60.00
2022-12-01T00:10:17.537Z,60.00
2022-12-01T00:12:19.312Z,60.00
2022-12-01T00:14:21.146Z,60.00
2022-12-01T00:16:22.929Z,59.90
2022-12-01T00:18:24.811Z,59.90
2022-12-01T00:20:26.715Z,60.00
2022-12-01T00:22:28.562Z,60.00
2022-12-01T00:24:30.360Z,59.90
2022-12-01T00:26:32.230Z,59.90
2022-12-01T00:28:34.025Z,59.90
2022-12-01T00:30:35.818Z,59.90
2022-12-01T00:32:37.671Z,59.90
2022-12-01T00:34:39.526Z,59.90
2022-12-01T00:36:41.287Z,59.90
2022-12-01T00:38:43.067Z,59.90
2022-12-01T00:40:44.818Z,59.90
2022-12-01T00:42:46.658Z,59.90
2022-12-01T00:44:48.444Z,59.90
2022-12-01T00:46:50.239Z,59.90
2022-12-01T00:48:52.013Z,59.90
2022-12-01T00:50:54.844Z,59.90
2022-12-01T00:52:57.258Z,60.00
2022-12-01T00:54:59.086Z,59.90
2022-12-01T00:57:01.157Z,60.00
2022-12-01T00:59:03.032Z,60.00
2022-12-01T01:01:06.019Z,59.90
2022-12-01T01:03:07.927Z,60.00
2022-12-01T01:05:09.979Z,59.90
2022-12-01T01:07:11.844Z,60.00
2022-12-01T01:09:14.130Z,60.00
2022-12-01T01:11:16.116Z,60.00
2022-12-01T01:13:18.010Z,59.90
2022-12-01T01:15:19.849Z,60.00
2022-12-01T01:17:21.634Z,59.90
2022-12-01T01:19:23.506Z,60.00
2022-12-01T01:21:26.065Z,60.00
2022-12-01T01:23:27.946Z,60.00
2022-12-01T01:25:31.733Z,60.00
2022-12-01T01:27:34.223Z,60.00
2022-12-01T01:29:36.206Z,60.00
2022-12-01T01:31:38.039Z,60.00
2022-12-01T01:33:39.850Z,60.00
2022-12-01T01:35:41.674Z,60.00
2022-12-01T01:37:43.424Z,60.00
2022-12-01T01:39:45.781Z,60.00
2022-12-01T01:41:47.660Z,60.00
2022-12-01T01:43:50.896Z,60.00
2022-12-01T01:45:52.723Z,60.10
2022-12-01T01:47:55.412Z,60.00
2022-12-01T01:49:58.910Z,60.10
2022-12-01T01:52:02.720Z,60.00
2022-12-01T01:54:08.076Z,60.00
2022-12-01T01:56:10.224Z,60.00
2022-12-01T01:58:12.027Z,60.00
2022-12-01T02:00:15.442Z,60.00
2022-12-01T02:02:18.421Z,60.10
2022-12-01T02:04:20.572Z,60.00
2022-12-01T02:06:23.158Z,60.10
2022-12-01T02:08:25.158Z,60.00
2022-12-01T02:10:38.879Z,60.00
2022-12-01T02:12:40.737Z,60.10
2022-12-01T02:14:48.499Z,60.10
2022-12-01T02:17:00.323Z,60.00
2022-12-01T02:19:15.358Z,60.00
2022-12-01T02:21:19.934Z,60.10
2022-12-01T02:23:33.647Z,60.10
2022-12-01T02:25:45.627Z,60.00
2022-12-01T02:27:53.278Z,60.10
2022-12-01T02:30:06.281Z,60.10
2022-12-01T02:32:31.030Z,60.00
2022-12-01T02:35:08.527Z,60.00
2022-12-01T02:37:16.030Z,60.00
2022-12-01T02:39:27.195Z,60.00
2022-12-01T02:41:32.748Z,60.00
2022-12-01T02:43:45.865Z,60.10
2022-12-01T02:46:08.870Z,60.00
2022-12-01T02:48:31.033Z,60.00
2022-12-01T02:50:33.342Z,60.10
2022-12-01T02:52:35.490Z,60.00
2022-12-01T02:54:37.606Z,60.00
2022-12-01T02:56:39.349Z,60.00
2022-12-01T02:58:42.241Z,60.00
2022-12-01T03:00:49.048Z,60.10
2022-12-01T03:02:56.627Z,60.20
2022-12-01T03:05:04.786Z,60.10
2022-12-01T03:07:25.326Z,60.10
2022-12-01T03:09:45.772Z,60.10
2022-12-01T03:12:10.675Z,60.10
2022-12-01T03:14:25.085Z,60.00
2022-12-01T03:16:26.960Z,60.00
2022-12-01T03:18:37.887Z,60.00
2022-12-01T03:20:46.914Z,60.10
2022-12-01T03:22:54.556Z,60.10
2022-12-01T03:24:57.410Z,60.10
2022-12-01T03:27:00.116Z,60.10
2022-12-01T03:29:10.173Z,60.10
2022-12-01T03:31:13.753Z,60.10
2022-12-01T03:33:18.833Z,60.10
2022-12-01T03:35:33.781Z,60.10
2022-12-01T03:37:55.971Z,60.10
2022-12-01T03:40:00.765Z,60.10
2022-12-01T03:42:06.430Z,60.10
2022-12-01T03:44:14.702Z,60.10
2022-12-01T03:46:23.628Z,60.10
2022-12-01T03:48:25.601Z,60.20
2022-12-01T03:50:31.434Z,60.10
2022-12-01T03:52:59.610Z,60.10
2022-12-01T03:55:04.230Z,60.20
2022-12-01T03:57:09.568Z,60.20
2022-12-01T03:59:11.663Z,60.20
2022-12-01T04:01:13.444Z,60.20
2022-12-01T04:03:19.697Z,60.10
2022-12-01T04:05:25.296Z,60.20
2022-12-01T04:07:28.532Z,60.20
2022-12-01T04:09:30.320Z,60.20
2022-12-01T04:11:32.944Z,60.20
2022-12-01T04:13:34.877Z,60.20
2022-12-01T04:15:36.700Z,60.10
2022-12-01T04:17:39.095Z,60.10
2022-12-01T04:19:40.939Z,60.10
2022-12-01T04:21:42.785Z,60.20
2022-12-01T04:23:44.635Z,60.20
2022-12-01T04:25:46.393Z,60.10
2022-12-01T04:27:48.227Z,60.10
2022-12-01T04:29:50.119Z,60.10
2022-12-01T04:31:52.163Z,60.20
2022-12-01T04:33:54.545Z,60.10
2022-12-01T04:35:59.687Z,60.20
2022-12-01T04:38:01.496Z,60.10
2022-12-01T04:40:03.928Z,60.10
2022-12-01T04:42:05.731Z,60.00
2022-12-01T04:44:09.187Z,60.10
2022-12-01T04:46:11.384Z,60.00
2022-12-01T04:48:13.328Z,60.10
2022-12-01T04:50:15.140Z,60.10
2022-12-01T04:52:17.013Z,60.10
2022-12-01T04:54:18.848Z,60.10
2022-12-01T04:56:20.711Z,60.10
2022-12-01T04:58:22.474Z,60.10
2022-12-01T05:00:24.391Z,60.10
2022-12-01T05:02:26.269Z,60.10
2022-12-01T05:04:28.228Z,60.10
2022-12-01T05:06:30.494Z,60.10
2022-12-01T05:08:32.653Z,60.20
2022-12-01T05:10:38.020Z,60.10
2022-12-01T05:12:39.882Z,60.10
2022-12-01T05:14:41.659Z,60.20
2022-12-01T05:16:43.594Z,60.10
2022-12-01T05:18:52.806Z,60.10
2022-12-01T05:20:54.667Z,60.20
2022-12-01T05:23:08.110Z,60.10
2022-12-01T05:25:12.024Z,60.20
2022-12-01T05:27:13.816Z,60.20
2022-12-01T05:29:15.651Z,60.10
2022-12-01T05:31:17.429Z,60.10
2022-12-01T05:33:19.334Z,60.10
2022-12-01T05:35:21.102Z,60.10
2022-12-01T05:37:22.941Z,60.20
2022-12-01T05:39:24.806Z,60.10
2022-12-01T05:41:26.670Z,60.00
2022-12-01T05:43:29.592Z,60.10
2022-12-01T05:45:31.899Z,60.20
2022-12-01T05:47:33.697Z,60.10
2022-12-01T05:49:35.561Z,60.20
2022-12-01T05:51:37.339Z,60.00
2022-12-01T05:53:39.198Z,60.20
2022-12-01T05:55:40.979Z,60.10
2022-12-01T05:57:42.876Z,60.10
2022-12-01T05:59:44.631Z,60.20
2022-12-01T06:01:46.476Z,60.20
2022-12-01T06:03:48.341Z,60.20
2022-12-01T06:05:50.343Z,60.20
2022-12-01T06:07:52.212Z,60.20
2022-12-01T06:09:54.091Z,60.20
2022-12-01T06:11:55.840Z,60.60
2022-12-01T06:13:57.691Z,60.10
2022-12-01T06:16:00.272Z,60.00
2022-12-01T06:18:02.237Z,60.00
2022-12-01T06:20:04.203Z,60.00
2022-12-01T06:22:06.103Z,60.00
2022-12-01T06:24:07.918Z,60.10
2022-12-01T06:26:10.054Z,60.10
2022-12-01T06:28:11.837Z,60.10
2022-12-01T06:30:13.818Z,60.10
2022-12-01T06:32:16.332Z,60.10
2022-12-01T06:34:18.162Z,60.10
2022-12-01T06:36:19.902Z,60.10
2022-12-01T06:38:21.710Z,60.10
2022-12-01T06:40:23.579Z,60.10
2022-12-01T06:42:25.428Z,60.10
2022-12-01T06:44:27.209Z,60.00
2022-12-01T06:46:29.194Z,60.10
2022-12-01T06:48:31.413Z,60.10
2022-12-01T06:50:33.245Z,60.10
2022-12-01T06:52:35.202Z,60.10
2022-12-01T06:54:37.170Z,60.10
2022-12-01T06:56:38.963Z,60.10
2022-12-01T06:58:41.111Z,60.10
2022-12-01T07:00:45.389Z,60.10
2022-12-01T07:02:51.032Z,60.10
2022-12-01T07:04:52.818Z,60.10
2022-12-01T07:06:54.630Z,60.10
2022-12-01T07:08:56.436Z,60.00
2022-12-01T07:10:58.259Z,60.10
2022-12-01T07:12:59.999Z,60.00
2022-12-01T07:15:01.966Z,60.10
2022-12-01T07:17:03.852Z,60.10
2022-12-01T07:19:05.806Z,60.00
2022-12-01T07:21:08.686Z,60.10
2022-12-01T07:23:10.481Z,60.10
2022-12-01T07:25:12.283Z,60.10
2022-12-01T07:27:14.240Z,60.10
2022-12-01T07:29:16.083Z,60.10
2022-12-01T07:31:18.795Z,60.10
2022-12-01T07:33:20.622Z,60.10
2022-12-01T07:35:22.786Z,60.10
2022-12-01T07:37:24.548Z,60.10
2022-12-01T07:39:26.429Z,60.10
2022-12-01T07:41:28.231Z,60.10
2022-12-01T07:43:30.904Z,60.00
2022-12-01T07:45:32.671Z,60.10
2022-12-01T07:47:34.669Z,60.10
2022-12-01T07:49:36.499Z,60.10
2022-12-01T07:51:38.360Z,60.10
2022-12-01T07:53:40.136Z,60.20
2022-12-01T07:55:47.740Z,60.10
2022-12-01T07:57:49.519Z,60.10
2022-12-01T07:59:51.443Z,60.10
2022-12-01T08:01:53.501Z,60.10
2022-12-01T08:03:56.423Z,60.10
2022-12-01T08:05:58.725Z,60.10
2022-12-01T08:08:00.675Z,60.20
2022-12-01T08:10:02.503Z,60.10
2022-12-01T08:12:04.419Z,60.10
2022-12-01T08:14:06.214Z,60.10
2022-12-01T08:16:09.101Z,60.00
2022-12-01T08:18:10.965Z,60.10
2022-12-01T08:20:12.883Z,60.00
2022-12-01T08:22:14.639Z,60.00
2022-12-01T08:24:16.533Z,60.00
2022-12-01T08:26:19.104Z,60.10
2022-12-01T08:28:20.995Z,60.10
2022-12-01T08:30:22.890Z,60.00
2022-12-01T08:32:25.918Z,60.00
2022-12-01T08:34:27.723Z,60.00
2022-12-01T08:36:29.542Z,60.00
2022-12-01T08:38:31.621Z,60.70
2022-12-01T08:40:33.543Z,60.00
2022-12-01T08:42:35.305Z,60.10
2022-12-01T08:44:37.189Z,60.10
2022-12-01T08:46:39.068Z,60.00
2022-12-01T08:48:41.093Z,60.00
2022-12-01T08:50:42.871Z,60.00
2022-12-01T08:52:44.767Z,60.00
2022-12-01T08:54:46.579Z,60.10
2022-12-01T08:56:48.718Z,60.10
2022-12-01T08:58:50.786Z,60.10
2022-12-01T09:00:52.606Z,60.10
2022-12-01T09:02:54.446Z,60.10
2022-12-01T09:04:56.286Z,60.10
2022-12-01T09:06:58.251Z,60.10
2022-12-01T09:09:00.846Z,60.00
2022-12-01T09:11:07.244Z,60.10
2022-12-01T09:13:09.735Z,60.10
2022-12-01T09:15:11.501Z,60.20
2022-12-01T09:17:15.028Z,60.10
2022-12-01T09:19:23.672Z,60.10
2022-12-01T09:21:27.792Z,60.10
2022-12-01T09:23:29.621Z,60.10
2022-12-01T09:25:33.427Z,60.10
2022-12-01T09:27:35.211Z,60.10
2022-12-01T09:29:37.100Z,60.10
2022-12-01T09:31:39.363Z,60.20
2022-12-01T09:33:41.302Z,60.20
2022-12-01T09:35:43.070Z,60.20
2022-12-01T09:37:44.901Z,60.30
2022-12-01T09:39:46.951Z,60.30
2022-12-01T09:42:09.570Z,60.20
2022-12-01T09:44:11.431Z,60.30
2022-12-01T09:46:30.649Z,60.30
2022-12-01T09:48:44.338Z,60.20
2022-12-01T09:50:46.220Z,60.20
2022-12-01T09:52:56.879Z,60.20
2022-12-01T09:54:59.338Z,60.30
2022-12-01T09:57:01.102Z,60.20
2022-12-01T09:59:05.099Z,60.20
2022-12-01T10:01:12.478Z,60.20
2022-12-01T10:03:17.098Z,60.20
2022-12-01T10:05:19.984Z,60.20
2022-12-01T10:07:25.584Z,60.10
2022-12-01T10:09:36.284Z,60.10
2022-12-01T10:11:40.637Z,60.10
2022-12-01T10:13:43.863Z,60.00
2022-12-01T10:15:45.897Z,60.00
2022-12-01T10:17:50.397Z,60.00
2022-12-01T10:19:52.990Z,60.10
2022-12-01T10:21:57.343Z,60.00
2022-12-01T10:24:05.058Z,60.10
2022-12-01T10:26:12.742Z,60.10
2022-12-01T10:28:26.837Z,60.80
2022-12-01T10:30:28.937Z,60.00
2022-12-01T10:32:51.026Z,60.00
2022-12-01T10:34:52.810Z,60.00
2022-12-01T10:36:55.510Z,60.00
2022-12-01T10:38:57.294Z,60.00
2022-12-01T10:40:59.829Z,59.90
2022-12-01T10:43:02.053Z,60.00
2022-12-01T10:45:05.812Z,60.00
2022-12-01T10:47:20.883Z,60.00
2022-12-01T10:49:34.918Z,60.00
2022-12-01T10:51:47.307Z,59.90
2022-12-01T10:53:49.556Z,59.90
2022-12-01T10:55:56.282Z,59.90
2022-12-01T10:58:00.837Z,59.90
2022-12-01T11:00:06.746Z,59.80
2022-12-01T11:02:16.339Z,59.80
2022-12-01T11:04:36.707Z,59.80
2022-12-01T11:06:39.252Z,59.80
2022-12-01T11:08:43.491Z,59.60
2022-12-01T11:10:48.003Z,59.70
2022-12-01T11:12:57.555Z,59.70
2022-12-01T11:14:59.456Z,59.60
2022-12-01T11:17:15.217Z,59.60
2022-12-01T11:19:35.158Z,59.50
2022-12-01T11:21:45.048Z,59.60
2022-12-01T11:23:48.284Z,59.60
2022-12-01T11:25:55.960Z,59.70
2022-12-01T11:27:57.803Z,59.60
2022-12-01T11:30:01.950Z,59.60
2022-12-01T11:32:11.595Z,59.70
2022-12-01T11:34:30.063Z,59.60
2022-12-01T11:36:36.166Z,59.60
2022-12-01T11:38:37.964Z,59.60
2022-12-01T11:40:50.217Z,59.60
2022-12-01T11:42:57.036Z,59.60
2022-12-01T11:45:17.543Z,59.60
2022-12-01T11:47:24.763Z,59.60
2022-12-01T11:49:29.231Z,59.50
2022-12-01T11:51:30.959Z,59.50
2022-12-01T11:53:37.162Z,59.50
2022-12-01T11:55:38.930Z,59.50
2022-12-01T11:57:42.475Z,59.50
2022-12-01T11:59:44.263Z,59.40
2022-12-01T12:02:04.645Z,59.40
2022-12-01T12:04:06.555Z,59.40
2022-12-01T12:06:38.851Z,59.40
2022-12-01T12:08:45.490Z,59.40
2022-12-01T12:10:47.327Z,59.30
2022-12-01T12:13:08.007Z,59.30
2022-12-01T12:15:28.153Z,59.30
2022-12-01T12:18:02.481Z,59.20
2022-12-01T12:20:19.623Z,59.20
2022-12-01T12:22:24.399Z,59.20
2022-12-01T12:24:39.580Z,59.30
2022-12-01T12:26:41.343Z,59.30
2022-12-01T12:29:01.126Z,59.20
2022-12-01T12:31:11.330Z,59.20
2022-12-01T12:33:32.010Z,59.20
2022-12-01T12:35:36.518Z,59.20
2022-12-01T12:38:01.582Z,59.20
2022-12-01T12:40:21.791Z,59.20
2022-12-01T12:42:26.562Z,59.20
2022-12-01T12:44:47.134Z,59.20
2022-12-01T12:46:51.799Z,59.20
2022-12-01T12:49:19.145Z,59.20
2022-12-01T12:51:27.487Z,59.20
2022-12-01T12:53:33.176Z,59.20
2022-12-01T12:55:39.830Z,59.20
2022-12-01T12:57:46.515Z,59.20
2022-12-01T12:59:51.255Z,59.20
2022-12-01T13:01:56.222Z,59.20
2022-12-01T13:04:00.789Z,59.20
2022-12-01T13:06:06.008Z,59.20
2022-12-01T13:08:10.807Z,59.20
2022-12-01T13:10:21.754Z,59.10
2022-12-01T13:12:31.291Z,59.20
2022-12-01T13:14:39.232Z,59.10
2022-12-01T13:16:44.006Z,59.10
2022-12-01T13:18:49.052Z,59.10
2022-12-01T13:20:51.054Z,59.10
2022-12-01T13:22:53.583Z,59.10
2022-12-01T13:24:55.495Z,59.20
2022-12-01T13:26:57.446Z,59.10
2022-12-01T13:28:59.390Z,59.10
2022-12-01T13:31:06.299Z,59.10
2022-12-01T13:33:14.782Z,59.10
2022-12-01T13:35:25.947Z,59.10
2022-12-01T13:37:36.183Z,59.10
2022-12-01T13:39:39.066Z,59.10
2022-12-01T13:41:41.039Z,59.10
2022-12-01T13:43:48.947Z,59.10
2022-12-01T13:45:51.555Z,59.10
2022-12-01T13:47:54.647Z,59.10
2022-12-01T13:49:56.515Z,59.10
2022-12-01T13:52:17.110Z,59.10
2022-12-01T13:54:29.199Z,59.10
2022-12-01T13:56:37.496Z,59.10
2022-12-01T13:58:47.238Z,59.10
2022-12-01T14:00:49.152Z,59.10
2022-12-01T14:03:09.944Z,59.10
2022-12-01T14:05:30.282Z,59.20
2022-12-01T14:07:36.291Z,59.20
2022-12-01T14:09:39.111Z,59.20
2022-12-01T14:11:42.078Z,59.10
2022-12-01T14:14:03.358Z,59.10
2022-12-01T14:16:05.478Z,59.10
2022-12-01T14:18:27.535Z,59.10
2022-12-01T14:20:31.093Z,59.10
2022-12-01T14:22:38.821Z,59.10
2022-12-01T14:24:41.968Z,59.10
2022-12-01T14:26:45.082Z,59.10
2022-12-01T14:28:55.998Z,59.10
2022-12-01T14:30:59.684Z,59.10
2022-12-01T14:33:20.175Z,59.10
2022-12-01T14:35:22.162Z,59.10
2022-12-01T14:37:26.080Z,59.10
2022-12-01T14:39:45.796Z,59.10
2022-12-01T14:41:52.968Z,59.10
2022-12-01T14:44:01.360Z,59.10
2022-12-01T14:46:06.377Z,59.10
2022-12-01T14:48:13.200Z,59.10
2022-12-01T14:50:18.423Z,59.10
2022-12-01T14:52:29.303Z,59.10
2022-12-01T14:54:49.822Z,59.10
2022-12-01T14:56:54.057Z,59.10
2022-12-01T14:58:57.106Z,59.10
2022-12-01T15:01:07.140Z,59.10
2022-12-01T15:03:10.149Z,59.10
2022-12-01T15:05:16.337Z,59.10
2022-12-01T15:07:20.890Z,59.10
2022-12-01T15:09:38.499Z,59.10
2022-12-01T15:11:50.025Z,59.10
2022-12-01T15:13:53.275Z,59.10
2022-12-01T15:15:57.304Z,59.10
2022-12-01T15:17:59.163Z,59.10
2022-12-01T15:20:00.981Z,59.10
2022-12-01T15:22:05.190Z,59.10
2022-12-01T15:24:23.803Z,59.10
2022-12-01T15:26:28.322Z,59.20
2022-12-01T15:28:31.824Z,59.10
2022-12-01T15:30:33.705Z,59.20
2022-12-01T15:32:36.534Z,59.10
2022-12-01T15:34:40.243Z,59.10
2022-12-01T15:36:42.059Z,59.10
2022-12-01T15:38:45.918Z,59.10
2022-12-01T15:43:21.187Z,59.20
2022-12-01T15:45:23.316Z,59.20
2022-12-01T15:47:43.081Z,59.20
2022-12-01T15:49:48.779Z,59.30
2022-12-01T15:51:50.785Z,59.40
2022-12-01T15:53:56.603Z,59.40
2022-12-01T15:55:59.398Z,59.40
2022-12-01T15:58:01.900Z,59.40
2022-12-01T16:00:03.868Z,59.50
2022-12-01T16:02:20.209Z,59.50
2022-12-01T16:04:29.282Z,59.50
2022-12-01T16:06:33.039Z,59.40
2022-12-01T16:08:34.899Z,59.40
2022-12-01T16:10:36.886Z,59.40
2022-12-01T16:12:38.679Z,59.40
2022-12-01T16:14:55.439Z,59.50
2022-12-01T16:16:58.324Z,59.40
2022-12-01T16:19:01.884Z,59.50
2022-12-01T16:21:05.028Z,59.40
2022-12-01T16:23:10.763Z,60.00
2022-12-01T16:25:21.564Z,59.40
2022-12-01T16:27:30.055Z,59.40
2022-12-01T16:29:37.308Z,59.40
2022-12-01T16:31:52.809Z,59.50
2022-12-01T16:34:06.638Z,59.50
2022-12-01T16:36:15.919Z,59.60
2022-12-01T16:38:18.832Z,59.60
2022-12-01T16:40:20.822Z,59.60
2022-12-01T16:42:22.801Z,59.60
2022-12-01T16:44:29.078Z,59.60
2022-12-01T16:46:31.151Z,59.60
2022-12-01T16:48:33.048Z,59.60
2022-12-01T16:50:34.907Z,59.60
2022-12-01T16:52:44.369Z,59.60
2022-12-01T16:54:48.352Z,59.60
2022-12-01T16:56:50.382Z,59.60
2022-12-01T16:58:52.386Z,59.60
2022-12-01T17:00:54.933Z,59.60
2022-12-01T17:02:57.189Z,59.60
2022-12-01T17:04:59.123Z,59.60
2022-12-01T17:07:00.913Z,59.60
2022-12-01T17:09:02.726Z,59.60
2022-12-01T17:11:05.449Z,59.60
2022-12-01T17:13:07.455Z,59.60
2022-12-01T17:15:09.396Z,59.60
2022-12-01T17:17:11.197Z,59.60
2022-12-01T17:19:13.008Z,59.60
2022-12-01T17:21:14.924Z,59.70
2022-12-01T17:23:16.707Z,59.70
2022-12-01T17:25:18.725Z,59.70
2022-12-01T17:27:20.491Z,59.80
2022-12-01T17:29:23.126Z,59.80
2022-12-01T17:31:25.228Z,59.80
2022-12-01T17:33:27.082Z,59.80
2022-12-01T17:35:28.924Z,59.90
2022-12-01T17:37:30.880Z,59.90
2022-12-01T17:39:32.635Z,60.00
2022-12-01T17:41:34.563Z,60.00
2022-12-01T17:43:37.207Z,60.20
2022-12-01T17:45:39.044Z,60.30
2022-12-01T17:47:40.899Z,60.30
2022-12-01T17:49:42.796Z,60.30
2022-12-01T17:51:44.574Z,60.30
2022-12-01T17:53:46.439Z,60.30
2022-12-01T17:55:48.351Z,60.30
2022-12-01T17:57:50.216Z,60.50
2022-12-01T17:59:52.084Z,60.40
2022-12-01T18:01:54.686Z,60.40
2022-12-01T18:03:57.503Z,60.40
2022-12-01T18:06:00.372Z,60.50
2022-12-01T18:08:02.208Z,60.50
2022-12-01T18:10:04.259Z,60.60
2022-12-01T18:12:06.131Z,60.60
2022-12-01T18:14:08.011Z,60.60
2022-12-01T18:16:11.766Z,60.60
2022-12-01T18:18:14.219Z,60.70
2022-12-01T18:20:16.097Z,60.70
2022-12-01T18:22:17.969Z,60.80
2022-12-01T18:24:19.774Z,60.70
2022-12-01T18:26:23.171Z,60.80
2022-12-01T18:28:25.001Z,60.80
2022-12-01T18:30:26.822Z,60.70
2022-12-01T18:32:28.580Z,60.70
2022-12-01T18:34:30.424Z,60.70
2022-12-01T18:36:33.535Z,60.70
2022-12-01T18:38:35.331Z,60.60
2022-12-01T18:40:37.718Z,60.50
2022-12-01T18:42:39.557Z,60.50
2022-12-01T18:44:41.336Z,60.40
2022-12-01T18:46:43.198Z,60.40
2022-12-01T18:48:45.888Z,60.30
2022-12-01T18:50:48.235Z,60.30
2022-12-01T18:52:50.009Z,60.20
2022-12-01T18:54:53.458Z,60.20
2022-12-01T18:56:55.232Z,60.20
2022-12-01T18:58:57.956Z,60.20
2022-12-01T19:01:00.454Z,60.20
2022-12-01T19:03:02.335Z,60.20
2022-12-01T19:05:04.177Z,60.00
2022-12-01T19:07:06.229Z,59.90
2022-12-01T19:09:11.097Z,59.90
2022-12-01T19:11:13.271Z,59.80
2022-12-01T19:13:15.113Z,59.90
2022-12-01T19:15:17.069Z,59.80
2022-12-01T19:17:18.874Z,59.80
2022-12-01T19:19:20.702Z,59.80
2022-12-01T19:21:22.704Z,59.80
2022-12-01T19:23:24.579Z,59.80
2022-12-01T19:25:26.358Z,59.70
2022-12-01T19:27:28.427Z,59.70
2022-12-01T19:29:30.243Z,59.70
2022-12-01T19:31:32.379Z,59.60
2022-12-01T19:33:37.111Z,59.60
2022-12-01T19:35:38.941Z,59.60
2022-12-01T19:37:40.729Z,59.50
2022-12-01T19:39:42.582Z,59.50
2022-12-01T19:41:45.466Z,59.50
2022-12-01T19:43:47.479Z,59.50
2022-12-01T19:45:49.315Z,59.40
2022-12-01T19:47:51.244Z,59.40
2022-12-01T19:49:53.002Z,59.30
2022-12-01T19:51:54.910Z,59.30
2022-12-01T19:53:57.182Z,59.30
2022-12-01T19:56:02.804Z,59.30
2022-12-01T19:58:04.735Z,59.30
2022-12-01T20:00:07.069Z,59.30
2022-12-01T20:02:13.955Z,59.30
2022-12-01T20:04:15.876Z,59.30
2022-12-01T20:06:21.385Z,59.50
2022-12-01T20:08:23.203Z,59.30
2022-12-01T20:10:24.991Z,59.20
2022-12-01T20:12:26.906Z,59.10
2022-12-01T20:14:28.764Z,59.10
2022-12-01T20:16:30.925Z,59.10
2022-12-01T20:18:33.118Z,59.10
2022-12-01T20:20:35.002Z,59.10
2022-12-01T20:22:37.149Z,59.10
2022-12-01T20:24:39.311Z,59.10
2022-12-01T20:26:51.727Z,59.10
2022-12-01T20:28:53.550Z,59.10
2022-12-01T20:30:55.592Z,59.10
2022-12-01T20:32:57.402Z,59.00
2022-12-01T20:34:59.222Z,59.10
2022-12-01T20:37:01.590Z,59.10
2022-12-01T20:39:04.474Z,59.10
2022-12-01T20:41:06.768Z,59.10
2022-12-01T20:43:08.518Z,59.00
2022-12-01T20:45:10.391Z,59.10
2022-12-01T20:47:12.173Z,59.00
2022-12-01T20:49:16.730Z,59.00
2022-12-01T20:51:18.895Z,59.00
2022-12-01T20:53:20.875Z,59.10
2022-12-01T20:55:22.627Z,59.00
2022-12-01T20:57:24.464Z,59.00
2022-12-01T20:59:26.666Z,59.00
2022-12-01T21:01:28.587Z,59.00
2022-12-01T21:03:30.393Z,59.00
2022-12-01T21:05:32.398Z,59.00
2022-12-01T21:07:34.186Z,59.00
2022-12-01T21:09:36.074Z,59.00
2022-12-01T21:11:43.707Z,59.00
2022-12-01T21:13:46.330Z,59.00
2022-12-01T21:15:57.307Z,59.00
2022-12-01T21:18:09.535Z,59.00
2022-12-01T21:20:11.314Z,59.00
2022-12-01T21:22:13.633Z,59.00
2022-12-01T21:24:19.594Z,59.00
2022-12-01T21:26:21.447Z,59.00
2022-12-01T21:28:24.139Z,59.00
2022-12-01T21:30:26.098Z,59.00
2022-12-01T21:32:31.863Z,58.90
2022-12-01T21:34:34.481Z,58.90
2022-12-01T21:36:36.352Z,59.00
2022-12-01T21:38:38.175Z,59.50
2022-12-01T21:40:41.709Z,58.90
2022-12-01T21:42:43.643Z,58.90
2022-12-01T21:44:45.546Z,58.90
2022-12-01T21:46:50.015Z,58.90
2022-12-01T21:48:51.771Z,59.00
2022-12-01T21:51:01.581Z,58.90
2022-12-01T21:53:09.048Z,59.00
2022-12-01T21:55:16.941Z,59.00
2022-12-01T21:57:42.550Z,59.00
2022-12-01T21:59:46.114Z,58.90
2022-12-01T22:01:50.578Z,59.00
2022-12-01T22:03:52.421Z,58.90
2022-12-01T22:06:32.713Z,59.00
2022-12-01T22:08:35.519Z,59.00
2022-12-01T22:10:55.271Z,59.00
2022-12-01T22:12:57.089Z,59.00
2022-12-01T22:15:00.328Z,59.00
2022-12-01T22:17:05.181Z,59.00
2022-12-01T22:19:16.167Z,59.00
2022-12-01T22:21:26.055Z,59.00
2022-12-01T22:23:32.895Z,59.00
2022-12-01T22:25:35.305Z,59.00
2022-12-01T22:27:39.984Z,58.90
2022-12-01T22:29:45.491Z,59.00
2022-12-01T22:31:47.374Z,59.00
2022-12-01T22:33:53.638Z,59.00
2022-12-01T22:35:55.414Z,59.00
2022-12-01T22:38:06.634Z,59.00
2022-12-01T22:40:27.111Z,59.00
2022-12-01T22:42:28.895Z,59.00
2022-12-01T22:44:31.060Z,59.00
2022-12-01T22:46:34.407Z,59.00
2022-12-01T22:48:44.200Z,59.00
2022-12-01T22:50:51.340Z,59.00
2022-12-01T22:52:55.183Z,59.00
2022-12-01T22:54:57.040Z,59.00
2022-12-01T22:57:04.670Z,59.00
2022-12-01T22:59:15.412Z,59.00
2022-12-01T23:01:22.416Z,59.00
2022-12-01T23:03:24.393Z,59.00
2022-12-01T23:05:28.523Z,59.00
2022-12-01T23:07:30.331Z,59.00
2022-12-01T23:09:34.822Z,59.00
2022-12-01T23:11:36.654Z,59.00
2022-12-01T23:13:38.524Z,59.00
2022-12-01T23:15:45.016Z,59.00
2022-12-01T23:17:47.046Z,59.00
2022-12-01T23:19:49.939Z,59.00
2022-12-01T23:21:52.403Z,59.00
2022-12-01T23:23:54.198Z,59.00
2022-12-01T23:25:56.277Z,58.90
2022-12-01T23:27:59.313Z,58.90
2022-12-01T23:30:01.067Z,59.00
2022-12-01T23:32:02.901Z,59.00
2022-12-01T23:34:12.684Z,59.00
2022-12-01T23:36:25.866Z,59.00
2022-12-01T23:38:27.587Z,58.90
2022-12-01T23:40:35.777Z,59.00
2022-12-01T23:42:37.523Z,59.00
2022-12-01T23:44:40.878Z,59.00
2022-12-01T23:46:42.789Z,58.90
2022-12-01T23:48:55.919Z,59.00
2022-12-01T23:50:57.706Z,59.00
2022-12-01T23:52:59.515Z,59.00
2022-12-01T23:55:01.918Z,59.00
2022-12-01T23:57:10.696Z,59.00
2022-12-01T23:59:13.005Z,59.00
